createdAt,value
2022-10-23T00:01:28.313Z,100052.31
2022-10-23T00:03:58.459Z,100049.31
2022-10-23T00:06:27.392Z,100044.22
2022-10-23T00:08:56.232Z,100051.00
2022-10-23T00:11:28.256Z,100047.56
2022-10-23T00:13:58.738Z,100044.72
2022-10-23T00:16:29.313Z,100040.97
2022-10-23T00:18:58.191Z,100001.41
2022-10-23T00:21:27.404Z,100009.03
2022-10-23T00:23:56.214Z,100023.34
2022-10-23T00:26:24.850Z,100023.00
2022-10-23T00:28:55.726Z,100014.19
2022-10-23T00:31:25.917Z,100024.88
2022-10-23T00:33:55.457Z,99995.44
2022-10-23T00:36:24.406Z,100024.56
2022-10-23T00:38:53.796Z,99983.78
2022-10-23T00:41:26.449Z,100013.44
2022-10-23T00:44:09.221Z,100024.78
2022-10-23T00:46:38.920Z,100032.53
2022-10-23T00:49:09.621Z,100018.34
2022-10-23T00:51:41.126Z,100003.03
2022-10-23T00:54:26.081Z,100005.81
2022-10-23T00:56:58.153Z,100009.88
2022-10-23T00:59:26.525Z,100002.53
2022-10-23T01:01:54.703Z,100014.22
2022-10-23T01:04:26.584Z,100007.13
2022-10-23T01:07:03.722Z,100012.81
2022-10-23T01:09:39.112Z,100004.97
2022-10-23T01:12:16.705Z,100008.44
2022-10-23T01:14:56.474Z,100002.53
2022-10-23T01:17:31.881Z,99991.50
2022-10-23T01:20:20.860Z,100011.00
2022-10-23T01:23:13.786Z,100018.34
2022-10-23T01:26:06.844Z,100018.34
2022-10-23T01:28:45.409Z,100019.88
2022-10-23T01:31:19.790Z,100005.88
2022-10-23T01:33:55.170Z,99913.94
2022-10-23T01:36:28.627Z,100000.38
2022-10-23T01:39:01.486Z,99999.00
2022-10-23T01:41:33.999Z,99985.81
2022-10-23T01:44:10.660Z,99989.97
2022-10-23T01:46:38.908Z,99994.41
2022-10-23T01:49:10.607Z,99989.59
2022-10-23T01:51:41.308Z,99997.34
2022-10-23T01:54:14.897Z,99995.75
2022-10-23T01:56:48.159Z,99981.31
2022-10-23T01:59:22.460Z,99967.47
2022-10-23T02:01:54.967Z,99990.63
2022-10-23T02:04:28.630Z,99959.50
2022-10-23T02:06:57.506Z,99994.41
2022-10-23T02:09:26.314Z,99995.00
2022-10-23T02:11:58.804Z,99984.81
2022-10-23T02:14:38.510Z,99974.25
2022-10-23T02:17:16.741Z,99982.53
2022-10-23T02:19:51.340Z,99992.25
2022-10-23T02:22:24.772Z,99996.13
2022-10-23T02:24:57.818Z,99994.81
2022-10-23T02:27:33.494Z,99981.72
2022-10-23T02:30:06.786Z,100004.50
2022-10-23T02:32:37.167Z,100002.50
2022-10-23T02:35:06.264Z,99999.09
2022-10-23T02:37:34.844Z,99991.81
2022-10-23T02:40:05.505Z,100018.38
2022-10-23T02:42:40.375Z,100036.63
2022-10-23T02:45:16.539Z,100021.41
2022-10-23T02:47:56.117Z,100027.75
2022-10-23T02:50:34.145Z,100019.22
2022-10-23T02:53:11.933Z,100050.88
2022-10-23T02:55:55.423Z,100038.88
2022-10-23T02:58:32.216Z,100035.19
2022-10-23T03:01:09.998Z,100036.69
2022-10-23T03:03:44.050Z,100043.81
2022-10-23T03:06:13.644Z,99985.56
2022-10-23T03:08:46.024Z,100006.25
2022-10-23T03:11:14.847Z,100013.38
2022-10-23T03:13:43.098Z,100030.66
2022-10-23T03:16:13.109Z,100018.72
2022-10-23T03:18:41.412Z,99991.56
2022-10-23T03:21:10.994Z,100033.53
2022-10-23T03:23:39.883Z,100037.88
2022-10-23T03:26:08.833Z,100024.06
2022-10-23T03:28:37.488Z,100041.09
2022-10-23T03:31:05.980Z,100032.38
2022-10-23T03:33:36.000Z,100029.19
2022-10-23T03:36:04.900Z,99975.13
2022-10-23T03:38:33.609Z,100027.38
2022-10-23T03:41:01.796Z,99987.22
2022-10-23T03:43:30.968Z,99926.50
2022-10-23T03:46:01.216Z,100030.38
2022-10-23T03:48:29.703Z,100031.56
2022-10-23T03:50:59.514Z,100044.78
2022-10-23T03:53:27.974Z,100054.56
2022-10-23T03:55:56.455Z,100053.84
2022-10-23T03:58:24.754Z,100058.56
2022-10-23T04:00:53.146Z,100021.38
2022-10-23T04:03:22.520Z,100044.13
2022-10-23T04:05:52.309Z,100025.50
2022-10-23T04:08:23.365Z,100044.34
2022-10-23T04:10:51.728Z,100057.53
2022-10-23T04:13:20.360Z,100038.63
2022-10-23T04:15:53.118Z,99971.88
2022-10-23T04:18:22.158Z,100082.00
2022-10-23T04:20:50.874Z,100076.56
2022-10-23T04:23:19.605Z,100076.59
2022-10-23T04:25:49.148Z,100067.03
2022-10-23T04:28:17.743Z,100060.84
2022-10-23T04:30:46.670Z,100064.19
2022-10-23T04:33:14.796Z,100053.47
2022-10-23T04:35:43.403Z,100038.25
2022-10-23T04:38:12.323Z,100056.09
2022-10-23T04:40:40.677Z,100038.31
2022-10-23T04:43:10.643Z,100044.38
2022-10-23T04:45:39.400Z,100058.91
2022-10-23T04:48:08.235Z,100068.19
2022-10-23T04:50:37.066Z,100007.81
2022-10-23T04:53:05.300Z,100049.06
2022-10-23T04:55:34.409Z,100060.66
2022-10-23T04:58:02.613Z,100058.44
2022-10-23T05:00:33.311Z,100061.84
2022-10-23T05:03:01.953Z,100065.97
2022-10-23T05:05:30.268Z,100027.66
2022-10-23T05:07:58.954Z,100041.88
2022-10-23T05:10:27.284Z,100071.59
2022-10-23T05:12:55.820Z,100075.56
2022-10-23T05:15:24.806Z,100077.38
2022-10-23T05:17:58.471Z,100080.06
2022-10-23T05:20:31.303Z,100078.16
2022-10-23T05:23:01.882Z,100084.31
2022-10-23T05:25:32.913Z,100089.34
2022-10-23T05:28:01.495Z,100084.91
2022-10-23T05:30:29.897Z,100079.66
2022-10-23T05:33:01.665Z,100087.13
2022-10-23T05:35:33.706Z,100079.09
2022-10-23T05:38:03.867Z,100080.34
2022-10-23T05:40:32.267Z,100093.22
2022-10-23T05:43:00.973Z,100096.53
2022-10-23T05:45:29.060Z,100098.72
2022-10-23T05:48:05.808Z,100115.03
2022-10-23T05:50:48.136Z,100091.72
2022-10-23T05:53:16.568Z,100122.97
2022-10-23T05:55:44.583Z,100100.50
2022-10-23T05:58:13.007Z,100128.06
2022-10-23T06:00:41.801Z,100132.72
2022-10-23T06:03:10.699Z,100129.84
2022-10-23T06:08:09.981Z,100129.44
2022-10-23T06:10:38.723Z,100123.03
2022-10-23T06:13:07.369Z,100144.22
2022-10-23T06:15:35.387Z,100149.88
2022-10-23T06:18:04.264Z,100103.69
2022-10-23T06:20:33.175Z,100128.66
2022-10-23T06:23:02.316Z,100149.91
2022-10-23T06:25:32.276Z,100157.22
2022-10-23T06:28:00.447Z,100160.44
2022-10-23T06:30:29.286Z,100164.69
2022-10-23T06:32:57.603Z,100170.69
2022-10-23T06:35:25.916Z,100158.94
2022-10-23T06:37:54.162Z,100164.50
2022-10-23T06:40:22.525Z,100164.41
2022-10-23T06:42:52.168Z,100186.81
2022-10-23T06:45:20.633Z,100181.53
2022-10-23T06:47:51.899Z,100202.47
2022-10-23T06:50:21.165Z,100209.28
2022-10-23T06:52:49.614Z,100194.25
2022-10-23T06:55:17.816Z,100193.94
2022-10-23T06:57:46.253Z,100204.41
2022-10-23T07:00:17.025Z,100217.66
2022-10-23T07:02:46.904Z,100222.47
2022-10-23T07:05:15.240Z,100225.47
2022-10-23T07:07:44.129Z,100222.31
2022-10-23T07:12:44.642Z,100222.50
2022-10-23T07:15:13.322Z,100229.28
2022-10-23T07:17:43.950Z,100196.97
2022-10-23T07:20:12.546Z,100199.25
2022-10-23T07:22:41.594Z,100218.19
2022-10-23T07:25:10.482Z,100207.88
2022-10-23T07:27:40.928Z,100205.72
2022-10-23T07:30:10.808Z,100213.94
2022-10-23T07:32:39.607Z,100213.44
2022-10-23T07:35:11.105Z,100214.25
2022-10-23T07:37:39.237Z,100217.97
2022-10-23T07:40:10.562Z,100205.81
2022-10-23T07:42:39.657Z,100211.28
2022-10-23T07:45:08.971Z,100211.56
2022-10-23T07:47:37.560Z,100219.31
2022-10-23T07:50:06.483Z,100216.44
2022-10-23T07:52:37.780Z,100214.91
2022-10-23T07:55:07.555Z,100214.31
2022-10-23T07:57:36.043Z,100202.69
2022-10-23T08:00:06.240Z,100211.38
2022-10-23T08:02:34.903Z,100197.69
2022-10-23T08:05:03.057Z,100216.13
2022-10-23T08:07:31.443Z,100211.44
2022-10-23T08:10:01.145Z,100213.56
2022-10-23T08:12:29.625Z,100201.00
2022-10-23T08:14:57.680Z,100191.28
2022-10-23T08:17:28.262Z,100209.16
2022-10-23T08:19:56.829Z,100205.72
2022-10-23T08:22:24.948Z,100210.66
2022-10-23T08:24:53.050Z,100210.56
2022-10-23T08:27:23.518Z,100209.38
2022-10-23T08:29:51.946Z,100205.88
2022-10-23T08:32:20.074Z,100199.19
2022-10-23T08:34:48.304Z,100202.97
2022-10-23T08:37:16.612Z,100200.56
2022-10-23T08:39:44.947Z,100201.47
2022-10-23T08:42:22.082Z,100205.72
2022-10-23T08:45:01.241Z,100192.47
2022-10-23T08:47:36.351Z,100199.44
2022-10-23T08:50:09.073Z,100208.81
2022-10-23T08:52:42.397Z,100212.97
2022-10-23T08:55:19.459Z,100204.41
2022-10-23T08:57:54.949Z,100200.56
2022-10-23T09:00:24.401Z,100203.88
2022-10-23T09:02:55.041Z,100217.38
2022-10-23T09:05:29.493Z,100196.59
2022-10-23T09:08:17.776Z,100208.88
2022-10-23T09:10:58.746Z,100213.69
2022-10-23T09:13:58.257Z,100202.84
2022-10-23T09:16:42.680Z,100198.81
2022-10-23T09:19:16.722Z,100199.94
2022-10-23T09:21:47.055Z,100201.44
2022-10-23T09:24:18.274Z,100217.72
2022-10-23T09:26:49.766Z,100202.16
2022-10-23T09:29:24.903Z,100208.47
2022-10-23T09:31:56.877Z,100201.91
2022-10-23T09:34:27.451Z,100200.41
2022-10-23T09:36:57.899Z,100203.97
2022-10-23T09:39:29.454Z,100200.13
2022-10-23T09:41:58.463Z,100209.22
2022-10-23T09:44:29.987Z,100197.13
2022-10-23T09:47:01.965Z,100210.50
2022-10-23T09:49:32.253Z,100207.81
2022-10-23T09:52:07.295Z,100202.06
2022-10-23T09:54:39.010Z,100200.69
2022-10-23T09:57:21.463Z,100190.50
2022-10-23T09:59:53.833Z,100186.63
2022-10-23T10:02:29.317Z,100183.38
2022-10-23T10:04:57.481Z,100182.13
2022-10-23T10:07:30.207Z,100175.75
2022-10-23T10:10:00.746Z,100174.31
2022-10-23T10:12:51.170Z,100170.38
2022-10-23T10:15:29.090Z,100161.88
2022-10-23T10:18:11.823Z,100162.75
2022-10-23T10:21:04.615Z,100156.22
2022-10-23T10:23:39.197Z,100152.72
2022-10-23T10:26:16.875Z,100157.84
2022-10-23T10:29:03.453Z,100151.72
2022-10-23T10:31:46.425Z,100152.09
2022-10-23T10:34:29.856Z,100155.88
2022-10-23T10:37:02.208Z,100135.28
2022-10-23T10:39:39.840Z,100142.53
2022-10-23T10:42:30.312Z,100133.91
2022-10-23T10:45:19.576Z,100139.66
2022-10-23T10:48:02.881Z,100129.16
2022-10-23T10:50:41.760Z,100128.38
2022-10-23T10:53:19.794Z,100125.09
2022-10-23T10:55:53.482Z,100124.50
2022-10-23T10:58:29.385Z,100108.22
2022-10-23T11:01:01.686Z,100124.13
2022-10-23T11:03:39.865Z,100121.47
2022-10-23T11:06:16.897Z,100112.59
2022-10-23T11:08:56.498Z,100112.00
2022-10-23T11:11:32.193Z,100115.47
2022-10-23T11:14:00.917Z,100116.50
2022-10-23T11:16:32.992Z,100113.44
2022-10-23T11:19:11.371Z,100104.16
2022-10-23T11:21:46.302Z,100102.50
2022-10-23T11:25:12.311Z,100103.75
2022-10-23T11:28:08.540Z,100086.47
2022-10-23T11:30:48.804Z,100092.84
2022-10-23T11:33:57.528Z,100091.84
2022-10-23T11:36:46.279Z,100077.41
2022-10-23T11:39:23.786Z,100083.56
2022-10-23T11:41:56.199Z,100075.75
2022-10-23T11:44:40.621Z,100073.50
2022-10-23T11:47:39.783Z,100076.59
2022-10-23T11:50:27.588Z,100062.78
2022-10-23T11:53:19.894Z,100067.94
2022-10-23T11:56:05.263Z,100062.56
2022-10-23T11:58:44.867Z,100056.97
2022-10-23T12:01:38.327Z,100059.00
2022-10-23T12:04:21.189Z,100049.75
2022-10-23T12:06:52.227Z,100054.06
2022-10-23T12:09:29.803Z,100053.50
2022-10-23T12:12:15.907Z,100047.28
2022-10-23T12:14:46.702Z,100050.59
2022-10-23T12:17:40.255Z,100052.00
2022-10-23T12:20:27.094Z,100054.69
2022-10-23T12:23:28.655Z,100059.38
2022-10-23T12:26:19.296Z,100056.25
2022-10-23T12:28:55.441Z,100052.97
2022-10-23T12:31:37.689Z,100047.88
2022-10-23T12:34:20.080Z,100055.31
2022-10-23T12:37:07.985Z,100065.81
2022-10-23T12:39:37.812Z,100059.66
2022-10-23T12:42:12.723Z,100060.66
2022-10-23T12:44:41.605Z,100056.97
2022-10-23T12:47:19.978Z,100050.38
2022-10-23T12:49:50.442Z,100051.19
2022-10-23T12:52:21.218Z,100047.25
2022-10-23T12:54:50.886Z,100047.69
2022-10-23T12:57:23.707Z,100047.00
2022-10-23T12:59:54.426Z,100038.00
2022-10-23T13:02:25.268Z,100038.22
2022-10-23T13:04:56.174Z,100054.22
2022-10-23T13:07:29.290Z,100055.50
2022-10-23T13:09:59.333Z,100046.44
2022-10-23T13:12:32.151Z,100058.19
2022-10-23T13:15:03.737Z,100052.66
2022-10-23T13:17:37.196Z,100053.47
2022-10-23T13:20:27.827Z,100049.09
2022-10-23T13:23:02.710Z,100049.31
2022-10-23T13:25:33.342Z,100044.41
2022-10-23T13:28:25.100Z,100057.38
2022-10-23T13:31:06.339Z,100070.53
2022-10-23T13:33:38.208Z,100056.56
2022-10-23T13:36:20.871Z,100035.38
2022-10-23T13:39:00.813Z,100065.63
2022-10-23T13:41:30.875Z,100055.91
2022-10-23T13:44:00.665Z,100054.69
2022-10-23T13:46:29.579Z,100061.72
2022-10-23T13:48:57.869Z,100055.16
2022-10-23T13:51:28.667Z,100060.50
2022-10-23T13:53:57.720Z,100053.94
2022-10-23T13:56:28.499Z,100052.50
2022-10-23T13:58:56.883Z,100054.34
2022-10-23T14:01:29.377Z,100054.13
2022-10-23T14:03:59.499Z,100022.47
2022-10-23T14:06:27.935Z,100042.63
2022-10-23T14:08:56.566Z,100050.22
2022-10-23T14:11:25.078Z,100044.91
2022-10-23T14:13:53.567Z,100049.03
2022-10-23T14:16:22.391Z,100042.41
2022-10-23T14:18:52.271Z,100042.03
2022-10-23T14:21:22.267Z,100043.44
2022-10-23T14:23:52.440Z,100031.31
2022-10-23T14:26:22.278Z,100046.94
2022-10-23T14:28:52.914Z,100043.66
2022-10-23T14:31:21.270Z,100049.81
2022-10-23T14:33:56.026Z,100051.44
2022-10-23T14:36:28.247Z,100057.03
2022-10-23T14:39:03.281Z,100056.41
2022-10-23T14:41:31.443Z,100055.97
2022-10-23T14:43:59.954Z,100058.84
2022-10-23T14:46:29.566Z,100047.72
2022-10-23T14:49:02.341Z,100052.25
2022-10-23T14:51:31.939Z,100061.31
2022-10-23T14:54:02.328Z,100070.28
2022-10-23T14:56:32.842Z,100071.13
2022-10-23T14:59:03.770Z,100065.06
2022-10-23T15:01:32.292Z,100077.78
2022-10-23T15:04:02.019Z,100071.16
2022-10-23T15:06:30.671Z,100069.28
2022-10-23T15:08:59.165Z,100071.09
2022-10-23T15:11:28.142Z,100081.09
2022-10-23T15:13:56.698Z,100073.28
2022-10-23T15:16:25.560Z,100074.47
2022-10-23T15:18:54.201Z,100073.38
2022-10-23T15:21:24.537Z,100081.78
2022-10-23T15:23:53.025Z,100084.41
2022-10-23T15:26:23.307Z,100092.53
2022-10-23T15:28:54.877Z,100089.78
2022-10-23T15:31:54.601Z,100084.22
2022-10-23T15:34:25.656Z,100080.78
2022-10-23T15:36:57.503Z,100074.00
2022-10-23T15:39:28.316Z,100088.69
2022-10-23T15:41:57.955Z,100093.38
2022-10-23T15:44:27.991Z,100095.69
2022-10-23T15:46:58.089Z,100088.00
2022-10-23T15:49:27.331Z,100092.19
2022-10-23T15:51:57.263Z,100108.41
2022-10-23T15:54:28.174Z,100108.69
2022-10-23T15:56:59.239Z,100109.13
2022-10-23T15:59:28.532Z,100111.34
2022-10-23T16:01:57.258Z,100112.53
2022-10-23T16:04:25.935Z,100113.00
2022-10-23T16:06:54.087Z,100119.22
2022-10-23T16:09:24.022Z,100123.66
2022-10-23T16:11:52.417Z,100131.69
2022-10-23T16:14:21.176Z,100131.75
2022-10-23T16:16:49.762Z,100130.81
2022-10-23T16:19:18.882Z,100135.13
2022-10-23T16:21:47.212Z,100136.69
2022-10-23T16:24:15.641Z,100136.97
2022-10-23T16:26:50.455Z,100135.97
2022-10-23T16:29:19.435Z,100149.31
2022-10-23T16:31:48.029Z,100144.06
2022-10-23T16:34:16.893Z,100148.03
2022-10-23T16:36:45.582Z,100151.44
2022-10-23T16:39:15.798Z,100161.53
2022-10-23T16:41:45.588Z,100161.72
2022-10-23T16:44:13.722Z,100173.19
2022-10-23T16:46:42.310Z,100178.34
2022-10-23T16:49:10.287Z,100168.16
2022-10-23T16:51:38.594Z,100199.00
2022-10-23T16:54:07.377Z,100199.75
2022-10-23T16:56:35.562Z,100183.47
2022-10-23T16:59:05.554Z,100212.94
2022-10-23T17:01:34.495Z,100212.31
2022-10-23T17:04:03.229Z,100224.41
2022-10-23T17:06:33.634Z,100227.06
2022-10-23T17:09:03.253Z,100234.16
2022-10-23T17:11:34.181Z,100233.84
2022-10-23T17:14:05.631Z,100232.53
2022-10-23T17:16:36.310Z,100238.19
2022-10-23T17:19:16.064Z,100229.78
2022-10-23T17:21:49.877Z,100237.59
2022-10-23T17:24:17.991Z,100240.84
2022-10-23T17:26:46.906Z,100247.50
2022-10-23T17:29:18.371Z,100243.66
2022-10-23T17:31:48.211Z,100240.13
2022-10-23T17:34:19.022Z,100250.47
2022-10-23T17:36:50.013Z,100250.22
2022-10-23T17:39:21.611Z,100250.94
2022-10-23T17:41:50.769Z,100240.88
2022-10-23T17:44:20.352Z,100239.56
2022-10-23T17:46:53.664Z,100243.00
2022-10-23T17:49:22.461Z,100258.91
2022-10-23T17:51:52.934Z,100258.25
2022-10-23T17:54:21.284Z,100260.28
2022-10-23T17:56:49.864Z,100264.13
2022-10-23T17:59:20.076Z,100266.66
2022-10-23T18:01:49.675Z,100261.88
2022-10-23T18:04:20.248Z,100257.06
2022-10-23T18:06:50.767Z,100238.81
2022-10-23T18:09:19.294Z,100253.56
2022-10-23T18:11:48.936Z,100243.66
2022-10-23T18:14:18.042Z,100258.75
2022-10-23T18:16:48.529Z,100259.09
2022-10-23T18:19:19.180Z,100226.13
2022-10-23T18:21:47.736Z,100253.81
2022-10-23T18:24:17.158Z,100169.53
2022-10-23T18:26:48.256Z,100263.50
2022-10-23T18:29:17.658Z,100259.84
2022-10-23T18:31:50.954Z,100249.59
2022-10-23T18:34:21.709Z,100264.53
2022-10-23T18:36:52.737Z,100268.03
2022-10-23T18:39:25.214Z,100272.22
2022-10-23T18:41:57.286Z,100285.50
2022-10-23T18:44:29.167Z,100284.84
2022-10-23T18:47:01.471Z,100285.66
2022-10-23T18:49:30.301Z,100283.50
2022-10-23T18:51:59.234Z,100272.09
2022-10-23T18:54:27.902Z,100265.78
2022-10-23T18:56:56.365Z,100282.53
2022-10-23T18:59:24.975Z,100272.91
2022-10-23T19:01:54.126Z,100282.88
2022-10-23T19:04:24.047Z,100291.00
2022-10-23T19:06:52.874Z,100290.81
2022-10-23T19:09:22.021Z,100288.00
2022-10-23T19:11:50.926Z,100291.31
2022-10-23T19:14:18.994Z,100211.06
2022-10-23T19:16:58.835Z,100294.31
2022-10-23T19:19:33.685Z,100280.69
2022-10-23T19:22:04.235Z,100284.22
2022-10-23T19:24:39.608Z,100286.84
2022-10-23T19:27:08.465Z,100292.13
2022-10-23T19:29:40.687Z,100297.75
2022-10-23T19:32:09.351Z,100277.03
2022-10-23T19:34:40.010Z,100304.88
2022-10-23T19:37:08.352Z,100302.22
2022-10-23T19:39:37.226Z,100293.41
2022-10-23T19:42:05.520Z,100302.34
2022-10-23T19:44:33.919Z,100301.00
2022-10-23T19:47:04.210Z,100302.00
2022-10-23T19:49:32.668Z,100305.63
2022-10-23T19:52:02.258Z,100305.63
2022-10-23T19:54:31.128Z,100310.66
2022-10-23T19:57:02.399Z,100305.22
2022-10-23T19:59:30.418Z,100306.38
2022-10-23T20:01:58.955Z,100307.53
2022-10-23T20:04:29.074Z,100315.31
2022-10-23T20:06:58.808Z,100312.84
2022-10-23T20:09:28.737Z,100315.66
2022-10-23T20:11:56.967Z,100326.75
2022-10-23T20:14:25.254Z,100325.59
2022-10-23T20:16:56.094Z,100301.38
2022-10-23T20:19:24.630Z,100229.88
2022-10-23T20:21:52.839Z,100316.88
2022-10-23T20:24:22.326Z,100320.22
2022-10-23T20:26:54.446Z,100287.28
2022-10-23T20:29:23.756Z,100314.34
2022-10-23T20:31:52.616Z,100322.41
2022-10-23T20:34:21.358Z,100326.22
2022-10-23T20:36:51.959Z,100322.03
2022-10-23T20:39:25.492Z,100327.44
2022-10-23T20:41:56.827Z,100322.63
2022-10-23T20:44:26.338Z,100317.63
2022-10-23T20:46:55.603Z,100323.59
2022-10-23T20:49:24.680Z,100329.09
2022-10-23T20:51:55.635Z,100316.38
2022-10-23T20:54:24.658Z,100335.41
2022-10-23T20:56:54.663Z,100341.50
2022-10-23T20:59:23.782Z,100353.72
2022-10-23T21:01:54.091Z,100350.16
2022-10-23T21:04:24.342Z,100355.44
2022-10-23T21:07:10.795Z,100362.09
2022-10-23T21:09:40.156Z,100356.34
2022-10-23T21:12:11.305Z,100351.25
2022-10-23T21:14:40.054Z,100354.88
2022-10-23T21:17:10.900Z,100355.97
2022-10-23T21:19:41.072Z,100331.06
2022-10-23T21:22:09.681Z,100355.72
2022-10-23T21:24:38.559Z,100357.50
2022-10-23T21:27:07.007Z,100350.00
2022-10-23T21:29:37.836Z,100351.53
2022-10-23T21:32:06.592Z,100353.63
2022-10-23T21:34:35.265Z,100344.72
2022-10-23T21:37:12.929Z,100323.09
2022-10-23T21:39:43.557Z,100342.47
2022-10-23T21:42:12.392Z,100340.88
2022-10-23T21:44:43.557Z,100338.88
2022-10-23T21:47:11.842Z,100348.44
2022-10-23T21:49:40.458Z,100340.00
2022-10-23T21:52:09.275Z,100333.97
2022-10-23T21:54:38.522Z,100342.88
2022-10-23T21:57:07.100Z,100344.94
2022-10-23T21:59:36.281Z,100340.69
2022-10-23T22:02:06.838Z,100338.00
2022-10-23T22:04:35.919Z,100337.53
2022-10-23T22:07:04.380Z,100333.16
2022-10-23T22:09:34.454Z,100339.53
2022-10-23T22:12:04.466Z,100329.75
2022-10-23T22:14:33.269Z,100335.91
2022-10-23T22:17:02.371Z,100341.38
2022-10-23T22:19:32.419Z,100347.59
2022-10-23T22:22:00.629Z,100344.59
2022-10-23T22:24:29.007Z,100343.34
2022-10-23T22:26:59.411Z,100348.84
2022-10-23T22:29:29.803Z,100350.66
2022-10-23T22:31:58.697Z,100339.78
2022-10-23T22:37:19.910Z,100338.94
2022-10-23T22:39:51.209Z,100333.84
2022-10-23T22:42:20.389Z,100344.53
2022-10-23T22:44:48.461Z,100347.22
2022-10-23T22:47:17.217Z,100344.34
2022-10-23T22:49:45.792Z,100348.19
2022-10-23T22:52:14.459Z,100349.91
2022-10-23T22:54:44.591Z,100353.00
2022-10-23T22:57:13.476Z,100346.88
2022-10-23T22:59:42.406Z,100351.25
2022-10-23T23:02:11.410Z,100353.09
2022-10-23T23:04:39.671Z,100359.34
2022-10-23T23:07:08.797Z,100355.06
2022-10-23T23:09:39.066Z,100349.84
2022-10-23T23:12:11.108Z,100352.59
2022-10-23T23:14:39.779Z,100337.72
2022-10-23T23:17:09.602Z,100348.81
2022-10-23T23:19:38.619Z,100347.63
2022-10-23T23:22:07.690Z,100351.88
2022-10-23T23:24:36.509Z,100355.53
2022-10-23T23:27:05.178Z,100363.16
2022-10-23T23:29:35.553Z,100375.28
2022-10-23T23:32:06.075Z,100376.78
2022-10-23T23:34:34.148Z,100377.25
2022-10-23T23:37:02.738Z,100380.81
2022-10-23T23:39:30.965Z,100381.66
2022-10-23T23:41:59.470Z,100372.97
2022-10-23T23:44:27.601Z,100351.44
2022-10-23T23:46:58.627Z,100362.13
2022-10-23T23:49:26.978Z,100369.06
2022-10-23T23:51:55.097Z,100354.53
2022-10-23T23:54:23.469Z,100377.28
2022-10-23T23:56:52.951Z,100379.56
2022-10-23T23:59:21.480Z,100363.25
